Time;durP1;ratioP1;P1;durP2;ratioP2;P2;SDS_P1;SDS_P2;PMS_P1;PMS_P2;Temp;Humidity;BMP_temperature;BMP_pressure;BME280_temperature;BME280_humidity;BME280_pressure;Samples;Min_cycle;Max_cycle;Signal;HPM_P1;HPM_P2
2021/03/12 00:00:37;;;;;;;2.10;0.60;;;6.30;99.90;;;;;;5025001;28;20125;-70
2021/03/12 00:03:07;;;;;;;2.60;0.80;;;6.30;99.90;;;;;;5034476;28;20442;-70
2021/03/12 00:05:34;;;;;;;4.20;0.80;;;6.30;99.90;;;;;;5035183;28;20029;-70
2021/03/12 00:07:59;;;;;;;2.15;0.60;;;6.40;99.90;;;;;;5020114;28;20022;-68
2021/03/12 00:10:27;;;;;;;3.47;0.47;;;6.50;99.90;;;;;;5015336;28;20029;-69
2021/03/12 00:12:53;;;;;;;3.92;0.60;;;6.40;99.90;;;;;;5012683;28;20029;-70
2021/03/12 00:15:21;;;;;;;0.80;0.40;;;6.40;99.90;;;;;;5014409;28;20096;-71
2021/03/12 00:17:49;;;;;;;1.33;0.57;;;6.40;99.90;;;;;;5014588;28;20029;-71
2021/03/12 00:20:17;;;;;;;1.88;0.50;;;6.40;99.90;;;;;;5013849;28;20014;-69
2021/03/12 00:22:44;;;;;;;2.42;0.82;;;6.50;99.90;;;;;;5013469;28;20838;-69
2021/03/12 00:25:13;;;;;;;1.83;0.60;;;6.50;99.90;;;;;;5014680;28;20393;-69
2021/03/12 00:27:39;;;;;;;3.80;0.60;;;6.50;99.90;;;;;;5013164;28;20065;-70
2021/03/12 00:30:07;;;;;;;1.45;0.70;;;6.60;99.90;;;;;;5022936;28;20041;-70
2021/03/12 00:32:33;;;;;;;5.93;0.77;;;6.50;99.90;;;;;;5034068;28;20048;-70
2021/03/12 00:34:59;;;;;;;2.05;0.60;;;6.50;99.90;;;;;;5031968;28;20484;-69
2021/03/12 00:37:24;;;;;;;2.55;0.65;;;6.50;99.90;;;;;;5049454;28;20053;-69
2021/03/12 00:39:50;;;;;;;2.67;0.63;;;6.50;99.90;;;;;;5033969;28;20014;-70
2021/03/12 00:42:16;;;;;;;1.88;0.50;;;6.60;99.90;;;;;;5033985;28;20510;-69
2021/03/12 00:44:42;;;;;;;2.78;0.60;;;6.60;99.90;;;;;;5033041;28;20061;-70
2021/03/12 00:47:07;;;;;;;7.03;0.80;;;6.60;99.90;;;;;;5034293;28;20025;-70
2021/03/12 00:49:33;;;;;;;2.97;0.70;;;6.60;99.90;;;;;;5033851;28;20029;-70
2021/03/12 00:51:59;;;;;;;4.32;1.50;;;6.70;99.90;;;;;;5033988;28;20124;-69
2021/03/12 00:54:25;;;;;;;5.57;1.27;;;6.60;99.90;;;;;;5033358;28;20033;-70
2021/03/12 00:56:50;;;;;;;4.25;1.15;;;6.60;99.90;;;;;;5048858;28;20025;-70
2021/03/12 00:59:16;;;;;;;4.05;0.60;;;6.60;99.90;;;;;;5032686;28;20420;-69
2021/03/12 01:01:41;;;;;;;6.07;0.63;;;6.60;99.90;;;;;;5014943;28;20025;-69
2021/03/12 01:04:08;;;;;;;3.05;0.57;;;6.60;99.90;;;;;;5014261;28;20392;-69
2021/03/12 01:06:34;;;;;;;2.42;0.60;;;6.70;99.90;;;;;;5014353;28;20163;-70
2021/03/12 01:09:00;;;;;;;3.70;0.50;;;6.70;99.90;;;;;;5014589;28;20037;-70
2021/03/12 01:11:25;;;;;;;1.70;0.52;;;6.70;99.90;;;;;;5014031;28;20030;-70
2021/03/12 01:13:51;;;;;;;3.90;0.57;;;6.70;99.90;;;;;;5015353;28;20030;-70
2021/03/12 01:16:17;;;;;;;3.95;0.73;;;6.70;99.90;;;;;;5015626;28;20022;-70
2021/03/12 01:18:42;;;;;;;1.15;0.60;;;6.80;99.90;;;;;;5015244;28;20054;-70
2021/03/12 01:21:08;;;;;;;4.40;0.75;;;6.70;99.90;;;;;;5014421;28;20096;-69
2021/03/12 01:23:34;;;;;;;2.50;0.77;;;6.70;99.90;;;;;;5014093;28;20038;-71
2021/03/12 01:25:59;;;;;;;3.17;0.73;;;6.80;99.90;;;;;;5014921;28;20116;-69
2021/03/12 01:28:25;;;;;;;3.08;0.65;;;6.70;99.90;;;;;;5013644;28;20037;-70
2021/03/12 01:30:51;;;;;;;2.47;0.70;;;6.80;99.90;;;;;;5013353;28;20029;-70
2021/03/12 01:33:18;;;;;;;4.35;1.05;;;6.80;99.90;;;;;;5012563;28;20029;-70
2021/03/12 01:35:43;;;;;;;3.03;0.70;;;6.60;99.90;;;;;;5013215;28;20392;-69
2021/03/12 01:38:09;;;;;;;5.03;1.50;;;6.70;99.90;;;;;;5013152;28;20026;-69
2021/03/12 01:40:39;;;;;;;2.45;0.57;;;6.50;99.90;;;;;;5013247;28;20061;-70
2021/03/12 01:43:04;;;;;;;3.63;0.70;;;6.50;99.90;;;;;;5012464;28;20022;-70
2021/03/12 01:45:39;;;;;;;3.65;0.60;;;6.40;99.90;;;;;;5013169;28;20080;-69
2021/03/12 01:48:11;;;;;;;4.18;0.90;;;6.50;99.90;;;;;;5013226;28;20065;-68
2021/03/12 01:50:39;;;;;;;3.72;0.70;;;6.40;99.90;;;;;;5033292;28;20021;-69
2021/03/12 01:53:15;;;;;;;2.42;0.88;;;6.50;99.90;;;;;;5037497;28;20010;-70
2021/03/12 01:55:42;;;;;;;3.03;0.80;;;6.40;99.90;;;;;;5038123;28;20040;-71
2021/03/12 01:58:08;;;;;;;4.13;0.65;;;6.40;99.90;;;;;;5026866;28;20125;-70
2021/03/12 02:00:35;;;;;;;5.47;0.98;;;6.50;99.90;;;;;;5013668;28;20109;-70
2021/03/12 02:03:02;;;;;;;4.53;0.85;;;6.40;99.90;;;;;;5030925;28;20108;-71
2021/03/12 02:05:28;;;;;;;2.75;0.60;;;6.30;99.90;;;;;;5027552;28;20105;-70
2021/03/12 02:07:55;;;;;;;4.03;0.90;;;6.40;99.90;;;;;;5013495;28;20061;-69
2021/03/12 02:10:23;;;;;;;1.55;0.70;;;6.40;99.90;;;;;;5028134;28;20046;-69
2021/03/12 02:13:10;;;;;;;6.43;1.10;;;6.50;99.90;;;;;;5013173;28;20033;-67
2021/03/12 02:15:39;;;;;;;2.88;0.57;;;6.50;99.90;;;;;;5013874;28;20384;-68
2021/03/12 02:18:33;;;;;;;3.10;0.52;;;6.50;99.90;;;;;;5013307;28;20022;-69
2021/03/12 02:21:11;;;;;;;4.40;0.98;;;6.40;99.90;;;;;;5013020;28;20033;-67
2021/03/12 02:23:46;;;;;;;5.63;0.80;;;6.40;99.90;;;;;;5015223;28;20038;-69
2021/03/12 02:26:24;;;;;;;7.97;0.90;;;6.50;99.90;;;;;;5029497;28;20480;-69
2021/03/12 02:28:52;;;;;;;2.30;0.88;;;6.60;99.90;;;;;;5012596;28;20377;-70
2021/03/12 02:31:18;;;;;;;4.63;0.95;;;6.60;99.90;;;;;;5012316;28;20018;-69
2021/03/12 02:33:44;;;;;;;5.80;0.85;;;6.50;99.90;;;;;;5011584;28;20380;-68
2021/03/12 02:36:10;;;;;;;4.70;0.70;;;6.50;99.90;;;;;;5012173;28;20560;-68
2021/03/12 02:38:37;;;;;;;2.42;0.63;;;6.50;99.90;;;;;;5010838;28;20026;-69
2021/03/12 02:41:05;;;;;;;3.03;0.70;;;6.50;99.90;;;;;;5012108;28;20029;-69
2021/03/12 02:43:32;;;;;;;2.05;0.57;;;6.50;99.90;;;;;;5012321;28;20026;-69
2021/03/12 02:45:59;;;;;;;2.15;0.60;;;6.50;99.90;;;;;;5012967;28;20033;-69
2021/03/12 02:48:26;;;;;;;3.63;1.05;;;6.40;99.90;;;;;;5034143;28;20018;-69
2021/03/12 02:50:52;;;;;;;5.65;0.82;;;6.40;99.90;;;;;;5017847;28;20026;-69
2021/03/12 02:53:18;;;;;;;4.70;0.90;;;6.40;99.90;;;;;;4991989;28;20050;-68
2021/03/12 02:55:44;;;;;;;3.08;0.77;;;6.60;99.90;;;;;;4992893;28;20026;-69
2021/03/12 02:58:12;;;;;;;3.83;0.80;;;6.20;99.90;;;;;;4992532;28;20103;-69
2021/03/12 03:00:39;;;;;;;3.28;0.73;;;6.50;99.90;;;;;;4992921;28;20022;-69
2021/03/12 03:03:06;;;;;;;6.93;0.85;;;6.50;99.90;;;;;;4992958;28;20038;-69
2021/03/12 03:05:32;;;;;;;2.15;1.25;;;6.50;99.90;;;;;;4995440;28;20129;-69
2021/03/12 03:07:59;;;;;;;5.85;1.00;;;6.40;99.90;;;;;;4995070;28;20027;-69
2021/03/12 03:10:25;;;;;;;3.83;1.00;;;6.30;99.90;;;;;;5011127;28;20034;-69
2021/03/12 03:12:53;;;;;;;3.25;0.88;;;6.20;99.90;;;;;;4996024;28;20019;-70
2021/03/12 03:15:21;;;;;;;5.40;1.00;;;6.10;99.90;;;;;;5008016;28;20033;-69
2021/03/12 03:17:49;;;;;;;6.90;1.00;;;6.00;99.90;;;;;;4992755;28;20037;-69
2021/03/12 03:20:16;;;;;;;2.63;0.90;;;6.00;99.90;;;;;;5003976;28;20314;-70
2021/03/12 03:22:46;;;;;;;2.75;0.75;;;6.00;99.90;;;;;;5014074;28;20038;-70
2021/03/12 03:25:13;;;;;;;6.35;0.63;;;6.40;99.90;;;;;;5016032;28;20034;-69
2021/03/12 03:27:40;;;;;;;2.50;0.70;;;5.90;99.90;;;;;;5016334;28;20056;-68
2021/03/12 03:30:12;;;;;;;4.90;1.60;;;5.80;99.90;;;;;;5017195;28;20080;-69
2021/03/12 03:32:38;;;;;;;3.58;0.55;;;5.70;99.90;;;;;;4998841;28;20057;-70
2021/03/12 03:35:09;;;;;;;5.90;0.70;;;5.70;99.90;;;;;;5015639;28;20459;-70
2021/03/12 03:37:35;;;;;;;4.95;0.95;;;5.70;99.90;;;;;;5015512;28;20052;-69
2021/03/12 03:40:02;;;;;;;4.00;0.90;;;5.70;99.90;;;;;;5015548;28;20061;-68
2021/03/12 03:42:29;;;;;;;3.00;0.90;;;5.60;99.90;;;;;;5015556;28;20105;-70
2021/03/12 03:44:58;;;;;;;2.90;1.00;;;5.70;99.90;;;;;;5014952;28;20040;-69
2021/03/12 03:47:26;;;;;;;4.03;0.70;;;5.70;99.90;;;;;;5015613;28;20033;-69
2021/03/12 03:49:53;;;;;;;2.95;0.80;;;5.70;99.90;;;;;;5015676;28;20076;-68
2021/03/12 03:52:21;;;;;;;3.55;0.98;;;5.80;99.90;;;;;;5015324;28;20045;-68
2021/03/12 03:54:51;;;;;;;4.00;0.60;;;5.70;99.90;;;;;;5029741;28;20022;-69
2021/03/12 03:57:20;;;;;;;3.53;0.68;;;5.90;99.90;;;;;;5015189;28;20025;-69
2021/03/12 03:59:47;;;;;;;3.10;0.80;;;5.90;99.90;;;;;;5015262;28;20022;-69
2021/03/12 04:02:17;;;;;;;5.43;1.23;;;6.00;99.90;;;;;;5015287;28;20021;-69
2021/03/12 04:04:51;;;;;;;2.72;0.90;;;6.10;99.90;;;;;;5014603;28;20026;-70
2021/03/12 04:07:19;;;;;;;2.30;0.40;;;6.00;99.90;;;;;;5014857;28;20030;-69
2021/03/12 04:09:49;;;;;;;6.03;0.82;;;6.00;99.90;;;;;;5015190;28;20396;-69
2021/03/12 04:12:16;;;;;;;7.78;0.85;;;6.00;99.90;;;;;;5015103;28;20030;-70
2021/03/12 04:14:42;;;;;;;1.23;0.47;;;6.00;99.90;;;;;;5014814;28;20396;-70
2021/03/12 04:17:10;;;;;;;4.40;0.82;;;6.00;99.90;;;;;;5015046;28;20472;-69
2021/03/12 04:19:37;;;;;;;2.83;0.60;;;6.10;99.90;;;;;;5021089;28;20030;-69
2021/03/12 04:22:03;;;;;;;4.07;0.70;;;6.10;99.90;;;;;;5034458;28;20049;-70
2021/03/12 04:24:29;;;;;;;4.22;0.60;;;6.10;99.90;;;;;;5034575;28;20030;-70
2021/03/12 04:26:55;;;;;;;6.85;0.98;;;6.10;99.90;;;;;;5031001;28;20037;-69
2021/03/12 04:29:22;;;;;;;5.35;0.90;;;6.20;99.90;;;;;;5034069;28;20049;-70
2021/03/12 04:31:48;;;;;;;1.52;0.60;;;6.20;99.90;;;;;;5023377;28;20022;-69
2021/03/12 04:34:14;;;;;;;4.75;0.70;;;6.10;99.90;;;;;;5014609;28;20026;-69
2021/03/12 04:36:41;;;;;;;3.22;0.70;;;6.00;99.90;;;;;;5014260;28;20439;-69
2021/03/12 04:39:07;;;;;;;3.97;0.65;;;5.90;99.90;;;;;;5015508;28;20473;-68
2021/03/12 04:41:34;;;;;;;2.80;0.93;;;5.90;99.90;;;;;;5016389;28;20499;-68
2021/03/12 04:44:01;;;;;;;6.85;0.88;;;5.80;99.90;;;;;;5015269;28;20030;-70
2021/03/12 04:46:27;;;;;;;4.07;0.90;;;5.80;99.90;;;;;;5014262;28;20080;-69
2021/03/12 04:48:54;;;;;;;3.55;0.70;;;5.80;99.90;;;;;;5014971;28;20400;-67
2021/03/12 04:51:20;;;;;;;8.15;1.75;;;5.70;99.90;;;;;;5014914;28;20311;-68
2021/03/12 04:53:45;;;;;;;4.72;1.02;;;5.80;99.90;;;;;;5014471;28;20064;-69
2021/03/12 04:56:13;;;;;;;3.88;1.08;;;5.70;99.90;;;;;;5014601;28;20476;-69
2021/03/12 04:58:39;;;;;;;6.88;1.10;;;5.80;99.90;;;;;;5013965;28;20021;-71
2021/03/12 05:01:09;;;;;;;4.82;0.80;;;5.80;99.90;;;;;;5013700;28;20053;-69
2021/03/12 05:03:37;;;;;;;4.35;0.82;;;5.70;99.90;;;;;;5013175;28;20030;-70
2021/03/12 05:06:05;;;;;;;7.93;1.10;;;5.80;99.90;;;;;;5020214;28;20022;-70
2021/03/12 05:08:32;;;;;;;4.47;1.10;;;5.60;99.90;;;;;;5014576;28;20049;-69
2021/03/12 05:11:01;;;;;;;4.53;0.70;;;5.60;99.90;;;;;;5013725;28;20064;-69
2021/03/12 05:13:27;;;;;;;8.02;0.90;;;5.60;99.90;;;;;;5012844;28;20144;-69
2021/03/12 05:15:53;;;;;;;5.53;1.30;;;5.50;99.90;;;;;;5013576;28;20101;-69
2021/03/12 05:18:19;;;;;;;2.92;0.80;;;5.40;99.90;;;;;;4995886;28;20539;-69
2021/03/12 05:20:45;;;;;;;8.05;1.15;;;5.50;99.90;;;;;;5013591;28;20384;-69
2021/03/12 05:23:11;;;;;;;8.00;1.10;;;5.50;99.90;;;;;;5012451;28;20038;-69
2021/03/12 05:25:37;;;;;;;5.93;0.90;;;5.70;99.90;;;;;;5013532;28;20075;-70
2021/03/12 05:28:03;;;;;;;5.53;1.13;;;5.70;99.90;;;;;;5013656;28;20074;-68
2021/03/12 05:30:28;;;;;;;4.90;1.58;;;5.60;99.90;;;;;;5013448;28;20026;-69
2021/03/12 05:32:54;;;;;;;9.60;1.50;;;5.60;99.90;;;;;;5012444;28;20018;-69
2021/03/12 05:35:20;;;;;;;4.80;1.13;;;5.70;99.90;;;;;;5012964;28;20053;-68
2021/03/12 05:37:45;;;;;;;6.43;1.20;;;5.60;99.90;;;;;;5013051;28;20061;-68
2021/03/12 05:40:11;;;;;;;5.35;1.23;;;5.50;99.90;;;;;;5010973;28;20022;-70
2021/03/12 05:42:39;;;;;;;3.85;0.95;;;5.50;99.90;;;;;;5018512;28;20042;-70
2021/03/12 05:45:05;;;;;;;4.05;1.20;;;5.50;99.90;;;;;;5016361;28;20033;-68
2021/03/12 05:47:31;;;;;;;4.22;0.95;;;5.50;99.90;;;;;;5013237;28;20033;-69
2021/03/12 05:49:58;;;;;;;9.40;1.48;;;5.60;99.90;;;;;;5014902;28;20053;-69
2021/03/12 05:52:24;;;;;;;3.22;0.98;;;5.60;99.90;;;;;;5013512;28;20384;-70
2021/03/12 05:54:52;;;;;;;6.07;1.23;;;5.60;99.90;;;;;;5012269;28;20081;-70
2021/03/12 05:57:18;;;;;;;6.72;1.55;;;5.60;99.90;;;;;;5013293;28;20022;-70
2021/03/12 05:59:44;;;;;;;4.47;1.38;;;5.60;99.90;;;;;;5008671;28;20075;-71
2021/03/12 06:02:10;;;;;;;4.57;1.52;;;5.60;99.90;;;;;;5012919;28;20022;-71
2021/03/12 06:04:35;;;;;;;7.05;1.35;;;5.60;99.90;;;;;;5013284;28;20399;-71
2021/03/12 06:07:01;;;;;;;7.40;1.65;;;5.60;99.90;;;;;;5011784;28;20948;-70
2021/03/12 06:09:27;;;;;;;8.07;1.20;;;5.60;99.90;;;;;;4994802;28;20460;-69
2021/03/12 06:11:53;;;;;;;4.70;1.33;;;5.70;99.90;;;;;;5003058;28;20034;-69
2021/03/12 06:14:19;;;;;;;4.40;1.35;;;5.70;99.90;;;;;;5014260;28;20037;-69
2021/03/12 06:16:49;;;;;;;6.15;1.20;;;5.60;99.90;;;;;;5015703;28;20014;-70
2021/03/12 06:19:19;;;;;;;7.25;1.33;;;5.70;99.90;;;;;;5015875;28;20078;-71
2021/03/12 06:21:47;;;;;;;6.18;1.17;;;5.70;99.90;;;;;;5004528;28;20504;-71
2021/03/12 06:24:27;;;;;;;5.75;1.00;;;5.50;99.90;;;;;;5028163;28;20045;-70
2021/03/12 06:26:53;;;;;;;4.47;1.17;;;5.50;99.90;;;;;;5030643;28;20034;-69
2021/03/12 06:29:34;;;;;;;3.40;1.00;;;5.70;99.90;;;;;;5014574;28;20068;-72
2021/03/12 06:32:03;;;;;;;4.00;1.20;;;5.80;99.90;;;;;;5014509;28;20033;-69
2021/03/12 06:34:29;;;;;;;5.30;1.25;;;6.10;99.90;;;;;;5012770;28;20030;-70
2021/03/12 06:36:56;;;;;;;2.38;0.88;;;7.20;99.90;;;;;;5030407;28;20472;-68
2021/03/12 06:39:35;;;;;;;5.82;1.25;;;6.90;99.90;;;;;;5012962;28;20061;-69
2021/03/12 06:42:07;;;;;;;4.88;1.02;;;6.50;99.90;;;;;;5010104;28;20029;-69
2021/03/12 06:44:35;;;;;;;5.85;1.73;;;6.40;99.90;;;;;;5008283;28;20108;-69
2021/03/12 06:47:03;;;;;;;8.70;1.27;;;6.20;99.90;;;;;;5013775;28;20050;-68
2021/03/12 06:49:29;;;;;;;5.57;1.17;;;6.10;99.90;;;;;;5010800;28;20037;-69
2021/03/12 06:52:01;;;;;;;8.55;2.72;;;6.20;99.90;;;;;;5012861;28;20484;-69
2021/03/12 06:54:29;;;;;;;6.03;1.30;;;6.20;99.90;;;;;;5010953;28;20045;-69
2021/03/12 06:56:56;;;;;;;5.97;0.95;;;6.00;99.90;;;;;;5012366;28;20153;-69
2021/03/12 06:59:30;;;;;;;3.17;1.10;;;6.00;99.90;;;;;;5012666;28;20096;-70
2021/03/12 07:01:57;;;;;;;9.50;1.33;;;5.90;99.90;;;;;;5013421;28;20088;-72
2021/03/12 07:04:26;;;;;;;7.95;1.77;;;5.90;99.90;;;;;;5008983;28;20054;-69
2021/03/12 07:06:51;;;;;;;4.60;1.42;;;6.10;99.90;;;;;;5008422;28;20034;-69
2021/03/12 07:09:18;;;;;;;7.93;1.33;;;6.30;99.90;;;;;;4994188;28;20034;-70
2021/03/12 07:11:44;;;;;;;6.90;1.25;;;6.50;99.90;;;;;;5001950;28;20018;-70
2021/03/12 07:14:09;;;;;;;5.00;1.35;;;6.70;99.90;;;;;;4992585;28;20030;-67
2021/03/12 07:16:35;;;;;;;6.70;1.65;;;6.60;99.90;;;;;;5007557;28;20444;-69
2021/03/12 07:19:01;;;;;;;7.05;1.02;;;6.60;99.90;;;;;;5028698;28;20026;-67
2021/03/12 07:21:29;;;;;;;2.85;1.27;;;6.70;99.90;;;;;;5010194;28;20030;-67
2021/03/12 07:23:59;;;;;;;2.00;1.20;;;6.50;99.90;;;;;;5011766;28;20412;-66
2021/03/12 07:26:41;;;;;;;2.50;1.20;;;6.40;99.90;;;;;;5012367;28;20026;-71
2021/03/12 07:29:09;;;;;;;5.50;1.58;;;6.40;99.90;;;;;;5011387;28;20408;-68
2021/03/12 07:31:36;;;;;;;4.72;1.00;;;6.60;99.90;;;;;;5012153;28;20033;-69
2021/03/12 07:34:16;;;;;;;3.78;0.73;;;6.60;99.90;;;;;;5011818;28;20499;-69
2021/03/12 07:36:46;;;;;;;3.33;0.75;;;6.60;99.90;;;;;;5026261;28;20075;-69
2021/03/12 07:39:16;;;;;;;5.03;0.88;;;6.60;99.90;;;;;;5012311;28;20022;-69
2021/03/12 07:41:43;;;;;;;3.92;0.80;;;6.70;99.90;;;;;;5011845;28;20388;-71
2021/03/12 07:44:16;;;;;;;2.75;0.70;;;6.70;99.90;;;;;;5010988;28;20030;-69
2021/03/12 07:46:44;;;;;;;1.90;0.80;;;6.80;99.90;;;;;;5002889;28;20029;-69
2021/03/12 07:49:28;;;;;;;3.25;0.70;;;6.70;99.90;;;;;;5008620;28;20060;-69
2021/03/12 07:51:58;;;;;;;3.15;1.13;;;6.80;99.90;;;;;;5011162;28;20484;-70
2021/03/12 07:54:44;;;;;;;5.00;0.80;;;6.70;99.90;;;;;;5010031;28;20081;-70
2021/03/12 07:57:11;;;;;;;5.25;1.00;;;6.80;99.90;;;;;;5011388;28;20065;-69
2021/03/12 07:59:46;;;;;;;1.95;0.75;;;7.00;99.90;;;;;;5011884;28;20057;-70
2021/03/12 08:02:13;;;;;;;4.55;0.90;;;6.90;99.90;;;;;;5025121;28;20014;-71
2021/03/12 08:04:39;;;;;;;3.25;1.23;;;7.20;99.90;;;;;;5010301;28;20022;-70
2021/03/12 08:07:17;;;;;;;4.22;0.90;;;7.50;99.90;;;;;;5012241;28;20022;-69
2021/03/12 08:09:45;;;;;;;7.47;0.98;;;7.40;99.90;;;;;;5014947;28;20109;-69
2021/03/12 08:12:30;;;;;;;3.47;1.38;;;7.10;99.90;;;;;;5002609;28;20092;-70
2021/03/12 08:15:15;;;;;;;1.58;0.88;;;7.00;99.90;;;;;;4994169;28;20507;-70
2021/03/12 08:17:45;;;;;;;1.50;0.73;;;7.10;99.90;;;;;;5021125;28;20022;-69
2021/03/12 08:20:23;;;;;;;2.38;0.90;;;7.20;99.90;;;;;;5024459;28;20109;-69
2021/03/12 08:22:58;;;;;;;3.33;0.90;;;7.20;99.90;;;;;;4996950;28;20034;-72
2021/03/12 08:25:36;;;;;;;5.88;1.67;;;7.10;99.90;;;;;;5014212;28;20060;-70
2021/03/12 08:28:07;;;;;;;6.60;1.05;;;7.60;99.90;;;;;;5012469;28;20030;-69
2021/03/12 08:30:33;;;;;;;3.42;0.75;;;8.60;99.90;;;;;;5014691;28;20030;-72
2021/03/12 08:33:03;;;;;;;3.65;1.05;;;9.80;99.90;;;;;;5013837;28;20029;-69
2021/03/12 08:35:36;;;;;;;6.18;1.13;;;10.60;99.90;;;;;;5014535;28;20460;-69
2021/03/12 08:38:04;;;;;;;5.28;1.17;;;9.80;99.90;;;;;;5014044;28;20025;-70
2021/03/12 08:40:31;;;;;;;4.20;1.10;;;9.90;99.90;;;;;;5013782;28;20026;-70
2021/03/12 08:43:08;;;;;;;4.28;1.30;;;10.70;99.90;;;;;;5018571;28;20041;-72
2021/03/12 08:45:34;;;;;;;4.85;1.30;;;10.30;99.90;;;;;;5016176;28;20087;-71
2021/03/12 08:48:31;;;;;;;5.40;1.13;;;9.30;99.90;;;;;;5037740;28;20030;-70
2021/03/12 08:51:02;;;;;;;9.43;1.08;;;8.60;99.90;;;;;;5022683;28;20038;-70
2021/03/12 08:53:30;;;;;;;6.88;1.00;;;8.50;99.90;;;;;;5016115;28;20030;-68
2021/03/12 08:55:58;;;;;;;11.07;1.52;;;8.50;99.90;;;;;;5014658;28;20097;-70
2021/03/12 08:58:27;;;;;;;5.53;1.48;;;8.10;99.90;;;;;;5015042;28;20053;-70
2021/03/12 09:00:58;;;;;;;2.67;1.15;;;8.10;99.90;;;;;;5014942;28;20029;-71
2021/03/12 09:03:30;;;;;;;2.83;1.02;;;8.20;99.90;;;;;;5013821;28;20017;-68
2021/03/12 09:06:06;;;;;;;3.92;1.20;;;8.40;99.90;;;;;;5014064;28;20420;-71
2021/03/12 09:08:33;;;;;;;5.53;1.20;;;8.50;99.90;;;;;;4993415;28;20030;-71
2021/03/12 09:10:59;;;;;;;5.63;1.50;;;8.90;99.90;;;;;;4994491;28;20026;-69
2021/03/12 09:13:31;;;;;;;5.35;1.67;;;8.40;99.90;;;;;;4993562;28;20033;-71
2021/03/12 09:15:58;;;;;;;5.78;0.93;;;8.30;99.90;;;;;;4993598;28;20026;-69
2021/03/12 09:18:26;;;;;;;3.70;0.90;;;8.60;99.90;;;;;;4993887;28;20034;-68
2021/03/12 09:21:00;;;;;;;2.53;0.90;;;8.30;99.90;;;;;;5004288;28;20488;-70
2021/03/12 09:23:44;;;;;;;6.72;1.38;;;8.30;99.90;;;;;;5014974;28;20022;-69
2021/03/12 09:26:16;;;;;;;3.90;1.20;;;8.30;99.90;;;;;;5015472;28;20092;-69
2021/03/12 09:28:44;;;;;;;4.82;0.88;;;8.10;99.90;;;;;;5018109;28;20045;-70
2021/03/12 09:31:11;;;;;;;4.40;1.33;;;8.00;99.90;;;;;;5037175;28;20415;-68
2021/03/12 09:33:40;;;;;;;4.35;1.02;;;7.90;99.90;;;;;;5037507;28;20056;-69
2021/03/12 09:36:39;;;;;;;8.02;1.25;;;7.90;99.90;;;;;;5037529;28;20022;-70
2021/03/12 09:39:16;;;;;;;7.53;1.13;;;7.90;99.90;;;;;;4995337;28;20023;-72
2021/03/12 09:41:44;;;;;;;3.47;1.23;;;8.10;99.90;;;;;;4995789;28;20477;-71
2021/03/12 09:44:14;;;;;;;7.28;1.77;;;8.20;99.90;;;;;;4994622;28;20031;-70
2021/03/12 09:46:54;;;;;;;5.43;1.23;;;8.40;99.90;;;;;;4994489;28;20084;-70
2021/03/12 09:49:46;;;;;;;5.78;1.60;;;8.60;99.90;;;;;;4995131;28;20030;-69
2021/03/12 09:52:19;;;;;;;6.43;1.17;;;8.80;99.90;;;;;;4992331;28;20060;-70
2021/03/12 09:54:45;;;;;;;7.68;1.58;;;10.90;99.90;;;;;;5024545;28;20096;-70
2021/03/12 09:57:17;;;;;;;4.95;1.17;;;11.00;99.90;;;;;;5013100;28;20022;-72
2021/03/12 09:59:47;;;;;;;7.15;1.13;;;10.00;99.90;;;;;;5013226;28;20046;-69
2021/03/12 10:02:13;;;;;;;5.25;1.13;;;9.80;99.90;;;;;;5028547;28;20037;-70
2021/03/12 10:04:41;;;;;;;4.63;1.42;;;10.30;99.90;;;;;;5012325;28;20030;-70
2021/03/12 10:07:15;;;;;;;4.38;1.13;;;12.90;99.90;;;;;;5011764;28;20100;-69
2021/03/12 10:09:49;;;;;;;4.50;1.00;;;14.50;97.10;;;;;;5012755;28;20046;-70
2021/03/12 10:12:20;;;;;;;1.45;0.80;;;16.90;88.50;;;;;;5012575;28;20053;-71
2021/03/12 10:14:48;;;;;;;3.60;1.30;;;18.70;71.20;;;;;;5012315;28;20117;-69
2021/03/12 10:17:16;;;;;;;3.28;1.08;;;16.60;78.10;;;;;;5012329;28;20026;-69
2021/03/12 10:19:57;;;;;;;4.47;1.13;;;13.80;82.20;;;;;;5012860;28;20056;-69
2021/03/12 10:22:27;;;;;;;3.50;0.70;;;12.70;86.20;;;;;;5011652;28;20400;-68
2021/03/12 10:24:59;;;;;;;3.42;0.82;;;11.60;89.80;;;;;;5011523;28;20053;-68
2021/03/12 10:27:28;;;;;;;6.40;1.27;;;11.80;91.50;;;;;;5012563;28;20456;-70
2021/03/12 10:29:54;;;;;;;3.13;0.93;;;13.40;88.90;;;;;;5011190;28;20025;-69
2021/03/12 10:32:20;;;;;;;4.50;0.85;;;14.60;83.70;;;;;;5012841;28;20504;-69
2021/03/12 10:34:51;;;;;;;5.55;0.93;;;16.70;72.80;;;;;;5012433;28;20038;-69
2021/03/12 10:37:19;;;;;;;2.30;1.13;;;17.50;68.80;;;;;;5027461;28;20029;-69
2021/03/12 10:39:50;;;;;;;4.47;1.10;;;15.80;75.00;;;;;;5018299;28;20024;-69
2021/03/12 10:42:16;;;;;;;2.88;0.80;;;15.00;76.40;;;;;;5027295;28;20025;-71
2021/03/12 10:44:53;;;;;;;3.72;1.10;;;14.80;80.50;;;;;;5032348;28;20654;-69
2021/03/12 10:47:19;;;;;;;3.33;1.00;;;15.40;77.40;;;;;;5022393;28;20076;-70
2021/03/12 10:49:45;;;;;;;2.28;1.15;;;15.80;74.20;;;;;;5031192;28;20026;-70
2021/03/12 10:52:26;;;;;;;5.25;1.10;;;17.80;70.60;;;;;;5021481;28;20091;-70
2021/03/12 10:54:53;;;;;;;1.73;0.80;;;17.50;70.20;;;;;;5015237;28;20029;-68
2021/03/12 10:57:34;;;;;;;5.53;1.23;;;14.90;75.50;;;;;;5013931;28;20030;-68
2021/03/12 11:00:00;;;;;;;5.25;1.40;;;13.90;77.30;;;;;;5012518;28;20014;-69
2021/03/12 11:02:36;;;;;;;4.15;1.45;;;15.20;75.90;;;;;;5011837;28;20082;-68
2021/03/12 11:05:03;;;;;;;2.40;0.73;;;14.50;78.50;;;;;;5012862;28;20036;-69
2021/03/12 11:07:29;;;;;;;3.47;0.90;;;14.80;77.70;;;;;;5022759;28;20585;-69
2021/03/12 11:09:54;;;;;;;2.33;0.90;;;15.60;75.40;;;;;;5047584;28;20120;-69
2021/03/12 11:12:20;;;;;;;2.47;0.88;;;13.80;78.30;;;;;;5031743;28;20087;-69
2021/03/12 11:14:49;;;;;;;3.45;1.15;;;13.60;80.10;;;;;;5020394;28;20033;-70
2021/03/12 11:17:15;;;;;;;2.15;0.93;;;12.60;86.80;;;;;;5013595;28;20034;-72
2021/03/12 11:19:41;;;;;;;3.30;1.27;;;14.20;84.70;;;;;;5013579;28;20115;-72
2021/03/12 11:22:07;;;;;;;5.90;1.27;;;15.00;82.30;;;;;;5012583;28;20080;-72
2021/03/12 11:24:34;;;;;;;3.15;1.20;;;14.50;83.80;;;;;;4991419;28;20118;-71
2021/03/12 11:26:59;;;;;;;5.07;1.33;;;12.50;92.80;;;;;;4993140;28;20102;-71
2021/03/12 11:29:27;;;;;;;6.53;0.60;;;11.20;96.10;;;;;;5001130;28;20364;-69
2021/03/12 11:31:53;;;;;;;2.60;0.80;;;10.10;99.10;;;;;;5028690;28;20026;-70
2021/03/12 11:34:18;;;;;;;3.15;0.80;;;9.70;99.90;;;;;;5012650;28;20057;-71
2021/03/12 11:36:44;;;;;;;1.55;0.60;;;10.00;99.90;;;;;;5012793;28;20056;-72
2021/03/12 11:39:11;;;;;;;1.83;0.65;;;9.80;99.90;;;;;;5017047;28;20507;-70
2021/03/12 11:41:38;;;;;;;1.52;0.82;;;9.00;99.90;;;;;;5036156;28;20037;-71
2021/03/12 11:44:04;;;;;;;0.95;0.60;;;8.40;99.90;;;;;;5034375;28;20030;-69
2021/03/12 11:46:30;;;;;;;1.17;0.73;;;8.40;99.90;;;;;;5035008;28;20036;-71
2021/03/12 11:48:56;;;;;;;2.63;0.50;;;11.10;99.90;;;;;;5035859;28;20478;-73
2021/03/12 11:51:22;;;;;;;3.33;0.50;;;14.90;99.90;;;;;;5034360;28;20025;-73
2021/03/12 11:53:47;;;;;;;1.95;0.80;;;16.10;95.60;;;;;;5025727;28;20064;-72
2021/03/12 11:56:13;;;;;;;1.20;0.60;;;17.80;91.00;;;;;;5015255;28;20029;-67
2021/03/12 11:58:39;;;;;;;3.13;0.90;;;18.10;91.00;;;;;;5013483;28;20148;-68
2021/03/12 12:01:05;;;;;;;2.28;0.70;;;18.40;84.40;;;;;;5014974;28;20033;-69
2021/03/12 12:03:30;;;;;;;3.38;1.20;;;15.50;91.30;;;;;;5007325;28;20127;-70
2021/03/12 12:05:56;;;;;;;3.40;1.13;;;15.70;90.50;;;;;;5006093;28;20480;-68
2021/03/12 12:08:22;;;;;;;4.10;1.20;;;16.00;90.80;;;;;;5015077;28;20421;-68
2021/03/12 12:10:47;;;;;;;2.17;1.00;;;16.80;88.70;;;;;;5013796;28;20070;-69
2021/03/12 12:13:13;;;;;;;3.53;1.20;;;17.10;82.80;;;;;;5021352;28;20068;-68
2021/03/12 12:15:40;;;;;;;2.83;1.02;;;17.10;82.00;;;;;;5029366;28;20029;-69
2021/03/12 12:18:07;;;;;;;3.65;1.08;;;18.00;78.90;;;;;;5029701;28;20022;-69
2021/03/12 12:20:36;;;;;;;1.67;0.88;;;19.50;75.80;;;;;;5029648;28;20026;-68
2021/03/12 12:23:01;;;;;;;3.45;0.80;;;20.10;77.40;;;;;;5030160;28;20061;-70
2021/03/12 12:25:27;;;;;;;2.95;0.85;;;20.70;65.80;;;;;;5031637;28;20485;-70
2021/03/12 12:27:54;;;;;;;2.45;0.82;;;22.70;59.60;;;;;;4995711;28;20622;-69
2021/03/12 12:30:19;;;;;;;2.58;1.05;;;23.00;55.70;;;;;;4995493;28;20105;-70
2021/03/12 12:32:45;;;;;;;3.88;1.05;;;23.10;52.10;;;;;;5002918;28;20057;-69
2021/03/12 12:35:12;;;;;;;1.92;0.88;;;22.20;54.00;;;;;;5023552;28;20026;-71
2021/03/12 12:37:38;;;;;;;2.25;0.80;;;22.00;53.60;;;;;;5036447;28;20124;-69
2021/03/12 12:40:06;;;;;;;4.40;0.77;;;22.10;51.80;;;;;;5019552;28;20366;-68
2021/03/12 12:42:32;;;;;;;4.72;1.25;;;20.70;53.90;;;;;;5019151;28;20014;-68
2021/03/12 12:44:58;;;;;;;3.65;1.25;;;18.60;60.40;;;;;;5015469;28;20040;-71
2021/03/12 12:47:24;;;;;;;3.40;1.10;;;17.90;59.50;;;;;;5015141;28;20058;-69
2021/03/12 12:49:49;;;;;;;2.40;1.17;;;17.60;60.20;;;;;;5014919;28;20072;-70
2021/03/12 12:52:15;;;;;;;2.70;0.73;;;17.60;59.40;;;;;;5013776;28;20070;-69
2021/03/12 12:54:41;;;;;;;1.40;0.73;;;17.70;58.70;;;;;;5013690;28;20476;-70
2021/03/12 12:57:07;;;;;;;3.20;1.38;;;17.10;57.90;;;;;;5015081;28;20052;-69
2021/03/12 12:59:33;;;;;;;1.83;0.98;;;14.90;59.50;;;;;;5015225;28;20064;-69
2021/03/12 13:01:59;;;;;;;6.05;0.82;;;14.50;66.50;;;;;;5015160;28;20049;-69